Time;durP1;ratioP1;P1;durP2;ratioP2;P2;SDS_P1;SDS_P2;PMS_P1;PMS_P2;Temp;Humidity;BMP_temperature;BMP_pressure;BME280_temperature;BME280_humidity;BME280_pressure;Samples;Min_cycle;Max_cycle;Signal;HPM_P1;HPM_P2
2022/06/21 00:01:33;;;;;;;9.50;3.30;;;14.90;67.70;;;;;;5027422;28;20057;-84
2022/06/21 00:04:07;;;;;;;10.68;4.05;;;14.90;67.70;;;;;;5031876;28;20469;-84
2022/06/21 00:06:41;;;;;;;9.15;3.50;;;14.90;67.80;;;;;;5030504;28;20045;-84
2022/06/21 00:09:12;;;;;;;7.78;3.35;;;14.90;67.80;;;;;;5027290;28;20092;-84
2022/06/21 00:11:39;;;;;;;7.55;3.33;;;14.90;67.80;;;;;;5026594;28;20518;-84
2022/06/21 00:14:15;;;;;;;9.23;3.47;;;14.90;67.80;;;;;;5027549;28;20059;-84
2022/06/21 00:16:53;;;;;;;10.25;3.97;;;14.80;67.90;;;;;;5014923;28;20103;-84
2022/06/21 00:19:28;;;;;;;8.63;3.35;;;14.80;67.80;;;;;;5029356;28;20426;-84
2022/06/21 00:22:15;;;;;;;7.80;3.60;;;14.80;67.90;;;;;;5030996;28;20077;-84
2022/06/21 00:25:02;;;;;;;8.02;3.53;;;14.80;67.90;;;;;;5030653;28;20046;-84
2022/06/21 00:27:49;;;;;;;8.25;3.70;;;14.70;67.90;;;;;;5026816;28;20069;-84
2022/06/21 00:30:25;;;;;;;9.98;4.03;;;14.60;67.90;;;;;;5022017;28;20061;-84
2022/06/21 00:32:56;;;;;;;9.02;3.40;;;14.70;68.00;;;;;;5022114;28;20569;-83
2022/06/21 00:35:25;;;;;;;7.45;3.55;;;14.60;68.00;;;;;;5029174;28;20049;-84
2022/06/21 00:37:54;;;;;;;10.02;3.92;;;14.60;68.10;;;;;;5028404;28;20112;-84
2022/06/21 00:40:30;;;;;;;6.80;3.85;;;14.60;68.10;;;;;;5033773;28;20509;-84
2022/06/21 00:43:08;;;;;;;8.75;3.85;;;14.50;68.20;;;;;;5035448;28;20045;-84
2022/06/21 00:45:42;;;;;;;8.73;3.45;;;14.50;68.20;;;;;;5032868;28;20060;-84
2022/06/21 00:48:17;;;;;;;7.82;4.05;;;14.50;68.20;;;;;;5031254;28;20498;-84
2022/06/21 00:50:47;;;;;;;6.57;3.78;;;14.40;68.30;;;;;;5031113;28;20052;-84
2022/06/21 00:53:20;;;;;;;7.82;3.38;;;14.40;68.30;;;;;;5030521;28;20052;-84
2022/06/21 00:55:58;;;;;;;9.68;3.65;;;14.40;68.40;;;;;;5015505;28;20049;-84
2022/06/21 00:58:27;;;;;;;10.35;3.88;;;14.40;68.50;;;;;;5033134;28;20046;-84
2022/06/21 01:01:24;;;;;;;9.95;4.43;;;14.40;68.50;;;;;;5020365;28;20053;-84
2022/06/21 01:04:04;;;;;;;10.07;3.95;;;14.40;68.60;;;;;;5020282;28;20060;-84
2022/06/21 01:06:40;;;;;;;9.23;3.90;;;14.30;68.60;;;;;;5030013;28;20045;-84
2022/06/21 01:09:31;;;;;;;12.18;4.10;;;14.30;68.70;;;;;;5033159;28;20053;-84
2022/06/21 01:12:04;;;;;;;7.85;3.88;;;14.30;68.80;;;;;;5032764;28;20099;-84
2022/06/21 01:14:34;;;;;;;8.00;3.88;;;14.30;68.80;;;;;;5026631;28;20058;-84
2022/06/21 01:17:02;;;;;;;11.82;4.05;;;14.20;68.90;;;;;;5021387;28;20049;-84
2022/06/21 01:19:37;;;;;;;10.95;3.88;;;14.20;69.00;;;;;;5033761;28;20464;-84
2022/06/21 01:22:33;;;;;;;11.02;4.32;;;14.20;69.00;;;;;;5031393;28;20099;-84
2022/06/21 01:25:38;;;;;;;9.40;4.18;;;14.20;69.10;;;;;;5034735;28;20049;-84
2022/06/21 01:28:07;;;;;;;8.48;3.72;;;14.20;69.10;;;;;;5013183;28;20045;-84
2022/06/21 01:30:34;;;;;;;10.15;3.97;;;14.10;69.10;;;;;;5011784;28;20100;-84
2022/06/21 01:33:02;;;;;;;8.73;3.95;;;14.10;69.20;;;;;;5009726;28;20565;-84
2022/06/21 01:35:44;;;;;;;9.63;4.55;;;14.10;69.20;;;;;;5009712;28;20493;-85
2022/06/21 01:38:22;;;;;;;8.13;3.60;;;14.10;69.20;;;;;;5025997;28;20050;-84
2022/06/21 01:40:52;;;;;;;8.90;4.07;;;14.10;69.30;;;;;;5011103;28;20526;-84
2022/06/21 01:43:25;;;;;;;8.18;4.18;;;14.00;69.30;;;;;;4995609;28;20049;-85
2022/06/21 01:46:05;;;;;;;9.90;4.40;;;14.00;69.30;;;;;;4996775;28;20521;-84
2022/06/21 01:48:43;;;;;;;10.65;4.50;;;14.00;69.40;;;;;;5008625;28;20046;-84
2022/06/21 01:51:17;;;;;;;12.02;4.85;;;14.00;69.50;;;;;;5009480;28;20046;-84
2022/06/21 01:53:44;;;;;;;10.52;4.38;;;14.00;69.50;;;;;;5009270;28;20049;-84
2022/06/21 01:56:17;;;;;;;11.55;4.13;;;14.00;69.60;;;;;;5009412;28;20041;-84
2022/06/21 01:58:52;;;;;;;11.07;4.60;;;13.90;69.60;;;;;;5025801;28;20042;-84
2022/06/21 02:01:49;;;;;;;7.65;3.70;;;13.90;69.70;;;;;;5011813;28;20089;-85
2022/06/21 02:04:20;;;;;;;9.93;4.35;;;13.90;69.80;;;;;;5021414;28;20441;-84
2022/06/21 02:06:48;;;;;;;11.10;4.60;;;13.90;69.80;;;;;;5031339;28;20073;-84
2022/06/21 02:09:25;;;;;;;8.52;4.20;;;13.90;69.90;;;;;;5030774;28;20053;-84
2022/06/21 02:12:09;;;;;;;9.50;4.70;;;13.90;70.00;;;;;;5032644;28;20050;-84
2022/06/21 02:14:50;;;;;;;7.43;4.30;;;13.90;70.00;;;;;;5032701;28;20052;-84
2022/06/21 02:17:22;;;;;;;11.00;4.95;;;13.90;70.10;;;;;;5032549;28;20041;-84
2022/06/21 02:20:17;;;;;;;12.10;4.45;;;13.90;70.10;;;;;;5032661;28;20049;-84
2022/06/21 02:22:45;;;;;;;9.13;4.93;;;13.90;70.20;;;;;;5017544;28;20100;-84
2022/06/21 02:25:22;;;;;;;10.02;4.90;;;13.80;70.20;;;;;;5033780;28;20045;-85
2022/06/21 02:27:50;;;;;;;10.85;5.07;;;13.80;70.20;;;;;;5032216;28;20111;-84
2022/06/21 02:30:21;;;;;;;11.00;4.97;;;13.80;70.30;;;;;;5032284;28;20049;-84
2022/06/21 02:32:50;;;;;;;8.60;4.60;;;13.80;70.30;;;;;;5030974;28;20139;-84
2022/06/21 02:35:26;;;;;;;10.35;4.70;;;13.80;70.30;;;;;;5032145;28;20449;-84
2022/06/21 02:37:57;;;;;;;8.45;4.60;;;13.70;70.30;;;;;;5031894;28;20506;-84
2022/06/21 02:40:28;;;;;;;10.43;4.93;;;13.70;70.40;;;;;;5032198;28;20053;-85
2022/06/21 02:43:04;;;;;;;8.52;4.15;;;13.70;70.40;;;;;;5033944;28;20068;-84
2022/06/21 02:45:57;;;;;;;8.68;4.68;;;13.70;70.40;;;;;;5030318;28;20068;-84
2022/06/21 02:48:31;;;;;;;10.23;5.53;;;13.70;70.50;;;;;;5031246;28;20115;-84
2022/06/21 02:51:05;;;;;;;12.82;5.10;;;13.70;70.50;;;;;;5031644;28;20119;-84
2022/06/21 02:53:36;;;;;;;10.57;4.78;;;13.60;70.50;;;;;;5031907;28;20042;-84
2022/06/21 02:56:11;;;;;;;7.60;4.32;;;13.60;70.50;;;;;;5032081;28;20053;-84
2022/06/21 02:58:45;;;;;;;11.80;5.22;;;13.60;70.50;;;;;;5016315;28;20042;-84
2022/06/21 03:01:24;;;;;;;;;;;13.60;70.60;;;;;;5032432;28;20081;-85
2022/06/21 03:03:51;;;;;;;7.82;4.90;;;13.60;70.60;;;;;;5031805;28;20263;-84
2022/06/21 03:06:21;;;;;;;8.02;4.47;;;13.60;70.60;;;;;;5031262;28;20049;-84
2022/06/21 03:09:06;;;;;;;9.88;4.72;;;13.50;70.60;;;;;;5031705;28;20107;-84
2022/06/21 03:11:45;;;;;;;10.00;4.43;;;13.50;70.70;;;;;;5031274;28;20049;-84
2022/06/21 03:14:24;;;;;;;10.50;4.82;;;13.50;70.70;;;;;;5031588;28;20045;-84
2022/06/21 03:16:52;;;;;;;8.38;5.15;;;13.50;70.70;;;;;;5031328;28;20588;-84
2022/06/21 03:19:36;;;;;;;10.77;4.93;;;13.50;70.70;;;;;;5032029;28;20037;-85
2022/06/21 03:22:12;;;;;;;8.05;4.93;;;13.50;70.70;;;;;;5032742;28;20506;-84
2022/06/21 03:24:39;;;;;;;10.57;4.70;;;13.50;70.70;;;;;;5032088;28;20465;-85
2022/06/21 03:27:17;;;;;;;11.65;4.78;;;13.40;70.70;;;;;;5029542;28;20061;-85
2022/06/21 03:29:44;;;;;;;11.25;4.90;;;13.40;70.70;;;;;;5031222;28;20533;-85
2022/06/21 03:32:11;;;;;;;9.40;5.32;;;13.40;70.70;;;;;;5031122;28;20041;-85
2022/06/21 03:34:41;;;;;;;8.85;4.80;;;13.40;70.60;;;;;;5030879;28;20054;-85
2022/06/21 03:37:08;;;;;;;11.32;5.03;;;13.40;70.60;;;;;;5032642;28;20045;-85
2022/06/21 03:42:27;;;;;;;10.43;5.15;;;13.40;70.60;;;;;;5029447;28;20456;-84
2022/06/21 03:45:14;;;;;;;10.52;5.22;;;13.40;70.60;;;;;;5030736;28;20100;-85
2022/06/21 03:47:51;;;;;;;10.52;5.20;;;13.40;70.60;;;;;;5028713;28;20464;-85
2022/06/21 03:50:58;;;;;;;9.38;5.35;;;13.40;70.60;;;;;;5030645;28;20049;-85
2022/06/21 03:53:47;;;;;;;8.05;4.82;;;13.30;70.70;;;;;;5010549;28;20128;-84
2022/06/21 03:56:29;;;;;;;7.85;4.97;;;13.30;70.70;;;;;;5028585;28;20099;-85
2022/06/21 03:59:19;;;;;;;10.00;4.90;;;13.30;70.70;;;;;;5028638;28;20115;-84
2022/06/21 04:01:56;;;;;;;8.30;4.90;;;13.30;70.70;;;;;;5028845;28;20053;-84
2022/06/21 04:04:35;;;;;;;11.40;4.63;;;13.30;70.70;;;;;;5028569;28;20542;-84
2022/06/21 04:07:23;;;;;;;9.02;5.35;;;13.20;70.80;;;;;;5026878;28;20455;-85
2022/06/21 04:10:04;;;;;;;8.75;5.40;;;13.30;70.90;;;;;;5013802;28;20056;-84
2022/06/21 04:12:38;;;;;;;9.20;5.82;;;13.30;71.00;;;;;;5026574;28;20442;-84
2022/06/21 04:15:23;;;;;;;9.38;5.10;;;13.20;71.00;;;;;;5028360;28;20050;-85
2022/06/21 04:18:14;;;;;;;11.23;5.43;;;13.20;71.20;;;;;;5028140;28;20054;-85
2022/06/21 04:21:05;;;;;;;9.82;5.10;;;13.30;71.30;;;;;;5028446;28;20113;-84
2022/06/21 04:23:35;;;;;;;9.13;4.75;;;13.30;71.30;;;;;;5027997;28;20456;-84
2022/06/21 04:26:25;;;;;;;8.23;5.20;;;13.30;71.40;;;;;;5028385;28;20046;-85
2022/06/21 04:29:12;;;;;;;11.27;5.32;;;13.20;71.50;;;;;;5026670;28;20054;-84
2022/06/21 04:31:41;;;;;;;10.55;5.38;;;13.30;71.60;;;;;;5013574;28;20049;-84
2022/06/21 04:34:20;;;;;;;8.25;4.75;;;13.30;71.60;;;;;;5031627;28;20050;-85
2022/06/21 04:36:54;;;;;;;11.52;5.13;;;13.30;71.80;;;;;;5029891;28;20453;-84
2022/06/21 04:39:45;;;;;;;9.57;5.70;;;13.30;71.80;;;;;;5029012;28;20104;-84
2022/06/21 04:42:17;;;;;;;9.75;5.80;;;13.40;72.00;;;;;;5027403;28;20107;-85
2022/06/21 04:45:05;;;;;;;9.63;5.57;;;13.40;72.00;;;;;;5027386;28;20037;-84
2022/06/21 04:47:44;;;;;;;11.90;5.40;;;13.40;72.10;;;;;;5029607;28;20469;-84
2022/06/21 04:50:32;;;;;;;9.77;5.32;;;13.40;72.20;;;;;;5030126;28;20046;-85
2022/06/21 04:53:09;;;;;;;9.05;5.50;;;13.40;72.20;;;;;;5030127;28;20041;-85
2022/06/21 04:55:58;;;;;;;11.80;6.50;;;13.40;72.30;;;;;;5030345;28;20044;-85
2022/06/21 04:58:25;;;;;;;11.18;5.63;;;13.40;72.40;;;;;;5044281;28;20502;-85
2022/06/21 05:00:53;;;;;;;12.05;5.43;;;13.40;72.40;;;;;;5030428;28;20530;-84
2022/06/21 05:03:38;;;;;;;8.70;5.50;;;13.40;72.50;;;;;;5029618;28;20461;-84
2022/06/21 05:06:05;;;;;;;11.48;5.80;;;13.50;72.60;;;;;;5029898;28;20107;-85
2022/06/21 05:08:32;;;;;;;10.80;5.90;;;13.50;72.60;;;;;;5028700;28;20569;-84
2022/06/21 05:11:01;;;;;;;11.10;5.72;;;13.50;72.70;;;;;;5030068;28;20042;-85
2022/06/21 05:13:33;;;;;;;10.85;5.70;;;13.50;72.80;;;;;;5030077;28;20057;-85
2022/06/21 05:16:04;;;;;;;12.63;5.53;;;13.50;72.80;;;;;;5031526;28;20100;-85
2022/06/21 05:18:39;;;;;;;10.23;6.20;;;13.50;72.90;;;;;;5029983;28;20060;-85
2022/06/21 05:21:13;;;;;;;10.00;6.30;;;13.50;73.00;;;;;;5028242;28;20049;-84
2022/06/21 05:23:41;;;;;;;10.15;6.15;;;13.60;73.00;;;;;;5028673;28;20053;-84
2022/06/21 05:26:16;;;;;;;9.77;6.20;;;13.60;73.10;;;;;;5025412;28;20614;-84
2022/06/21 05:28:53;;;;;;;9.85;6.90;;;13.60;73.20;;;;;;5018272;28;20053;-84
2022/06/21 05:31:25;;;;;;;11.18;6.05;;;13.60;73.30;;;;;;5031701;28;20072;-84
2022/06/21 05:33:55;;;;;;;13.85;6.93;;;13.60;73.30;;;;;;5018034;28;20045;-84
2022/06/21 05:36:28;;;;;;;9.68;6.40;;;13.70;73.40;;;;;;5028010;28;20053;-84
2022/06/21 05:39:07;;;;;;;13.77;6.77;;;13.70;73.40;;;;;;5029452;28;20042;-84
2022/06/21 05:41:39;;;;;;;12.43;6.45;;;13.70;73.50;;;;;;5032649;28;20057;-84
2022/06/21 05:44:13;;;;;;;10.63;7.25;;;13.70;73.60;;;;;;5033877;28;20041;-85
2022/06/21 05:46:49;;;;;;;10.77;6.32;;;13.80;73.60;;;;;;5017910;28;20045;-84
2022/06/21 05:49:25;;;;;;;11.55;6.72;;;13.80;73.70;;;;;;5017987;28;20046;-84
2022/06/21 05:51:54;;;;;;;10.20;6.57;;;13.80;73.70;;;;;;5018845;28;20052;-84
2022/06/21 05:54:26;;;;;;;13.75;7.03;;;13.90;73.80;;;;;;5027773;28;20053;-84
2022/06/21 05:56:52;;;;;;;13.07;7.57;;;13.90;73.80;;;;;;5027467;28;20053;-83
2022/06/21 05:59:23;;;;;;;13.88;6.78;;;13.90;73.90;;;;;;5022489;28;20042;-83
2022/06/21 06:02:01;;;;;;;15.93;7.18;;;13.90;73.90;;;;;;5016146;28;20449;-85
2022/06/21 06:04:41;;;;;;;10.73;6.65;;;13.90;74.00;;;;;;5023729;28;20119;-84
2022/06/21 06:07:26;;;;;;;12.13;6.78;;;13.90;74.00;;;;;;5029785;28;20053;-84
2022/06/21 06:09:56;;;;;;;12.52;7.25;;;14.00;74.00;;;;;;5032590;28;20041;-84
2022/06/21 06:12:32;;;;;;;12.07;6.70;;;14.00;74.00;;;;;;5029376;28;20140;-83
2022/06/21 06:15:19;;;;;;;13.55;7.75;;;14.00;74.10;;;;;;5028989;28;20465;-85
2022/06/21 06:17:52;;;;;;;11.13;7.30;;;14.00;74.10;;;;;;5029305;28;20095;-83
2022/06/21 06:20:47;;;;;;;14.40;7.28;;;14.10;74.10;;;;;;5029304;28;20391;-83
2022/06/21 06:23:22;;;;;;;9.65;6.72;;;14.10;74.10;;;;;;5029499;28;20038;-84
2022/06/21 06:25:57;;;;;;;13.73;6.63;;;14.20;74.20;;;;;;5029235;28;20049;-83
2022/06/21 06:28:26;;;;;;;13.63;6.43;;;14.20;74.10;;;;;;5031363;28;20049;-84
2022/06/21 06:31:03;;;;;;;10.20;6.50;;;14.20;74.20;;;;;;5032094;28;20103;-84
2022/06/21 06:33:48;;;;;;;12.88;7.07;;;14.30;74.10;;;;;;5029352;28;20498;-83
2022/06/21 06:36:36;;;;;;;11.82;6.95;;;14.30;74.10;;;;;;5029231;28;20049;-85
2022/06/21 06:39:19;;;;;;;12.05;6.88;;;14.30;74.10;;;;;;5028833;28;20532;-85
2022/06/21 06:42:04;;;;;;;13.30;6.70;;;14.30;74.10;;;;;;5026092;28;20049;-86
2022/06/21 06:44:50;;;;;;;13.02;6.35;;;14.40;74.00;;;;;;5028952;28;20053;-85
2022/06/21 06:47:28;;;;;;;9.88;6.32;;;14.40;74.00;;;;;;5028913;28;20095;-85
2022/06/21 06:50:04;;;;;;;12.70;6.75;;;14.40;74.00;;;;;;5028816;28;20049;-86
2022/06/21 06:52:37;;;;;;;11.63;7.00;;;14.40;74.00;;;;;;5029913;28;20049;-85
2022/06/21 06:55:16;;;;;;;15.05;7.20;;;14.50;74.00;;;;;;5013519;28;20050;-86
2022/06/21 06:57:55;;;;;;;14.80;6.00;;;14.50;73.90;;;;;;5029531;28;20048;-85
2022/06/21 07:00:27;;;;;;;12.32;6.18;;;14.50;73.90;;;;;;5028503;28;20072;-85
2022/06/21 07:02:59;;;;;;;11.20;6.55;;;14.50;74.00;;;;;;5028612;28;20046;-86
2022/06/21 07:05:34;;;;;;;17.05;7.22;;;14.60;73.90;;;;;;5028504;28;20096;-85
2022/06/21 07:08:32;;;;;;;15.80;7.95;;;14.60;73.90;;;;;;5028433;28;20048;-86
2022/06/21 07:11:02;;;;;;;13.73;6.22;;;14.60;73.90;;;;;;5015812;28;20561;-86
2022/06/21 07:13:31;;;;;;;13.07;6.53;;;14.60;73.90;;;;;;5029280;28;20061;-85
2022/06/21 07:16:05;;;;;;;11.48;7.10;;;14.70;73.90;;;;;;5031844;28;20115;-85
2022/06/21 07:18:38;;;;;;;;;;;14.60;73.80;;;;;;5028835;28;20490;-85
2022/06/21 07:21:06;;;;;;;12.40;6.70;;;14.70;73.80;;;;;;5030027;28;19921;-85
2022/06/21 07:23:33;;;;;;;13.13;6.55;;;14.70;73.80;;;;;;5028324;28;20041;-85
2022/06/21 07:26:17;;;;;;;11.40;6.50;;;14.70;73.80;;;;;;5028248;28;20042;-85
2022/06/21 07:28:53;;;;;;;14.00;6.88;;;14.70;73.80;;;;;;5013333;28;20053;-86
2022/06/21 07:31:44;;;;;;;11.88;5.57;;;14.70;73.70;;;;;;5030486;28;20045;-86
2022/06/21 07:34:20;;;;;;;16.90;7.15;;;14.80;73.70;;;;;;5030732;28;20049;-86
2022/06/21 07:37:00;;;;;;;10.80;6.22;;;14.80;73.70;;;;;;5030111;28;20120;-82
2022/06/21 07:39:35;;;;;;;11.40;6.57;;;14.80;73.70;;;;;;5027807;28;20045;-83
2022/06/21 07:42:20;;;;;;;13.95;6.53;;;14.80;73.70;;;;;;5027609;28;20053;-84
2022/06/21 07:44:55;;;;;;;12.77;6.00;;;14.80;73.70;;;;;;5027743;28;20048;-84
2022/06/21 07:47:43;;;;;;;13.60;6.18;;;14.90;73.60;;;;;;5027163;28;20046;-84
2022/06/21 07:50:17;;;;;;;11.63;6.40;;;14.90;73.70;;;;;;5027768;28;20041;-84
2022/06/21 07:53:02;;;;;;;13.88;6.88;;;14.90;73.60;;;;;;5012910;28;20046;-83
2022/06/21 07:55:41;;;;;;;12.75;6.80;;;14.90;73.70;;;;;;5028554;28;20515;-84
2022/06/21 07:58:20;;;;;;;14.55;6.43;;;14.90;73.60;;;;;;5027471;28;20053;-84
2022/06/21 08:06:43;;;;;;;9.82;5.50;;;15.00;73.60;;;;;;5027376;28;20135;-84
2022/06/21 08:09:24;;;;;;;13.63;6.47;;;15.10;73.70;;;;;;5026387;28;20449;-84
2022/06/21 08:11:53;;;;;;;11.13;5.68;;;15.10;73.60;;;;;;5027126;28;20053;-83
2022/06/21 08:14:21;;;;;;;9.75;5.28;;;15.10;73.60;;;;;;5027145;28;20045;-84
2022/06/21 08:17:23;;;;;;;10.85;4.97;;;15.10;73.50;;;;;;5027906;28;20038;-84
2022/06/21 08:20:00;;;;;;;11.20;5.90;;;15.20;73.60;;;;;;5008562;28;20049;-83
2022/06/21 08:23:01;;;;;;;12.30;4.93;;;15.20;73.50;;;;;;5008275;28;20493;-83
2022/06/21 08:25:44;;;;;;;8.82;4.80;;;15.30;73.40;;;;;;4949288;28;20059;-83
2022/06/21 08:28:38;;;;;;;13.18;5.20;;;15.30;73.30;;;;;;4950395;29;20063;-83
2022/06/21 08:31:34;;;;;;;12.52;5.57;;;15.30;73.20;;;;;;4932268;29;20052;-82
2022/06/21 08:34:13;;;;;;;10.35;5.25;;;15.40;73.20;;;;;;4951091;29;20055;-83
2022/06/21 08:37:10;;;;;;;11.52;5.85;;;15.40;73.20;;;;;;4950778;28;20054;-83
2022/06/21 08:39:51;;;;;;;10.20;5.15;;;15.40;73.10;;;;;;4932137;29;20063;-83
2022/06/21 08:42:52;;;;;;;12.18;4.95;;;15.40;73.10;;;;;;4949722;28;20051;-83
2022/06/21 08:45:53;;;;;;;12.65;4.88;;;15.50;73.10;;;;;;4933676;29;20540;-83
2022/06/21 08:48:45;;;;;;;9.88;4.45;;;15.60;73.00;;;;;;4949443;28;20051;-83
2022/06/21 08:51:42;;;;;;;8.75;4.85;;;15.60;72.90;;;;;;4949848;29;20051;-83
2022/06/21 08:54:35;;;;;;;10.75;4.45;;;15.70;72.80;;;;;;4949178;29;20055;-83
2022/06/21 08:57:25;;;;;;;12.05;5.38;;;15.80;72.70;;;;;;4960133;28;20105;-83
2022/06/21 09:00:04;;;;;;;12.32;5.07;;;15.80;72.60;;;;;;4964794;28;20484;-84
2022/06/21 09:03:00;;;;;;;10.77;4.75;;;15.90;72.50;;;;;;5007656;28;20510;-83
2022/06/21 09:06:05;;;;;;;7.05;4.22;;;15.90;72.30;;;;;;5030617;28;20049;-83
2022/06/21 09:08:49;;;;;;;11.95;4.75;;;16.00;72.20;;;;;;5030749;28;20045;-83
2022/06/21 09:11:45;;;;;;;9.82;4.35;;;16.10;72.00;;;;;;5030738;28;20042;-83
2022/06/21 09:14:34;;;;;;;14.02;4.20;;;16.20;71.90;;;;;;5030200;28;20095;-86
2022/06/21 09:17:38;;;;;;;13.10;4.82;;;16.30;71.80;;;;;;5032260;28;20464;-83
2022/06/21 09:20:19;;;;;;;9.40;4.40;;;16.30;71.60;;;;;;5020689;28;20505;-83
2022/06/21 09:23:18;;;;;;;8.60;4.20;;;16.40;71.40;;;;;;5018878;28;20123;-83
2022/06/21 09:25:54;;;;;;;9.25;4.38;;;16.50;71.30;;;;;;5032896;28;20052;-83
2022/06/21 09:28:36;;;;;;;9.93;4.20;;;16.60;71.10;;;;;;5031422;28;20191;-83
2022/06/21 09:31:10;;;;;;;11.40;4.00;;;16.70;71.00;;;;;;5034733;28;20054;-83
2022/06/21 09:33:49;;;;;;;11.98;4.03;;;16.80;70.90;;;;;;5031637;28;20103;-83
2022/06/21 09:36:22;;;;;;;10.75;3.67;;;16.90;70.80;;;;;;5030654;28;20104;-83
2022/06/21 09:39:17;;;;;;;9.97;3.80;;;17.00;70.50;;;;;;5029811;28;20632;-83
2022/06/21 09:41:50;;;;;;;8.43;4.10;;;17.20;70.30;;;;;;5028925;28;20049;-83
2022/06/21 09:44:25;;;;;;;8.63;4.30;;;17.30;70.10;;;;;;5029829;28;20045;-83
2022/06/21 09:47:33;;;;;;;10.45;3.92;;;17.40;69.80;;;;;;5030468;28;20541;-83
2022/06/21 09:50:12;;;;;;;9.00;4.03;;;17.60;69.50;;;;;;5017587;28;20038;-85
2022/06/21 09:52:59;;;;;;;9.05;3.80;;;17.80;69.20;;;;;;5014321;28;20043;-84
2022/06/21 09:55:40;;;;;;;8.00;3.83;;;18.00;68.80;;;;;;5031322;28;20108;-83
2022/06/21 09:58:10;;;;;;;11.75;3.72;;;18.10;68.40;;;;;;5030163;28;20049;-83
2022/06/21 10:00:50;;;;;;;7.38;3.30;;;18.30;68.00;;;;;;5031200;28;20104;-83
2022/06/21 10:03:29;;;;;;;9.38;3.92;;;18.40;67.50;;;;;;5029584;28;20461;-84
2022/06/21 10:06:05;;;;;;;10.90;3.42;;;18.60;67.10;;;;;;5029185;28;20062;-83
2022/06/21 10:09:09;;;;;;;7.85;3.75;;;18.70;66.70;;;;;;5028153;28;20052;-84
2022/06/21 10:11:45;;;;;;;10.40;3.58;;;18.80;66.20;;;;;;5029274;28;20498;-83
2022/06/21 10:14:15;;;;;;;10.40;3.38;;;18.90;65.80;;;;;;5029775;28;20055;-85
2022/06/21 10:16:45;;;;;;;9.95;3.38;;;19.00;65.50;;;;;;5029709;28;20052;-85
2022/06/21 10:19:36;;;;;;;11.25;3.53;;;19.20;65.00;;;;;;5032309;28;20056;-85
2022/06/21 10:22:14;;;;;;;9.77;2.95;;;19.30;64.60;;;;;;5029030;28;20046;-83
2022/06/21 10:25:02;;;;;;;10.23;3.40;;;19.40;64.30;;;;;;5025816;28;20050;-83
2022/06/21 10:27:29;;;;;;;14.00;3.50;;;19.50;63.90;;;;;;5028809;28;20049;-83
2022/06/21 10:30:06;;;;;;;9.02;3.10;;;19.60;63.60;;;;;;5029306;28;20046;-84
2022/06/21 10:32:42;;;;;;;9.85;3.45;;;19.70;63.20;;;;;;5029111;28;20403;-83
2022/06/21 10:35:34;;;;;;;10.30;3.58;;;19.80;63.00;;;;;;5029136;28;20045;-84
2022/06/21 10:38:26;;;;;;;9.23;3.20;;;19.90;62.60;;;;;;5017110;28;20049;-83
2022/06/21 10:41:13;;;;;;;9.45;3.00;;;20.00;62.30;;;;;;5015712;28;20050;-83
2022/06/21 10:43:54;;;;;;;7.40;3.38;;;20.10;62.00;;;;;;5013684;28;20049;-84
2022/06/21 10:46:28;;;;;;;9.50;3.22;;;20.30;61.80;;;;;;5031062;28;20041;-83
2022/06/21 10:49:40;;;;;;;7.35;3.05;;;20.40;61.40;;;;;;5032337;28;20068;-84
2022/06/21 10:52:37;;;;;;;9.83;3.30;;;20.50;61.00;;;;;;5029015;28;20045;-83
2022/06/21 10:55:43;;;;;;;8.43;3.22;;;20.60;60.60;;;;;;5033240;28;20099;-83
2022/06/21 10:58:23;;;;;;;11.05;3.60;;;20.70;60.20;;;;;;5028231;28;20464;-83
2022/06/21 11:01:17;;;;;;;7.68;2.80;;;20.80;59.90;;;;;;5031367;28;20104;-84
2022/06/21 11:04:05;;;;;;;7.38;2.70;;;20.90;59.60;;;;;;5032586;28;20049;-82
2022/06/21 11:06:57;;;;;;;8.98;3.22;;;21.00;59.30;;;;;;5029089;28;20049;-83
2022/06/21 11:09:50;;;;;;;7.00;2.90;;;21.10;58.90;;;;;;5028270;28;20045;-83
2022/06/21 11:15:14;;;;;;;6.25;2.50;;;21.20;58.30;;;;;;5029802;28;20046;-83
2022/06/21 11:17:48;;;;;;;11.10;3.80;;;21.30;58.10;;;;;;5028744;28;20056;-85
2022/06/21 11:20:41;;;;;;;7.90;2.78;;;21.40;57.80;;;;;;5027793;28;20296;-82
2022/06/21 11:23:39;;;;;;;8.00;3.10;;;21.50;57.50;;;;;;5027621;28;20465;-84
2022/06/21 11:26:24;;;;;;;11.60;2.83;;;21.50;57.20;;;;;;5016558;28;20038;-84
2022/06/21 11:29:24;;;;;;;6.97;3.15;;;21.60;56.90;;;;;;5016553;28;20072;-83
2022/06/21 11:31:51;;;;;;;7.90;3.10;;;21.70;56.60;;;;;;5014889;28;20061;-83
2022/06/21 11:35:19;;;;;;;8.45;3.15;;;21.80;56.40;;;;;;5030022;28;20053;-85
2022/06/21 11:37:57;;;;;;;7.47;3.13;;;21.80;56.10;;;;;;4969919;28;20086;-83
2022/06/21 11:40:46;;;;;;;7.80;2.63;;;21.80;55.90;;;;;;4969624;28;20054;-83
2022/06/21 11:43:30;;;;;;;9.75;2.65;;;21.90;55.70;;;;;;4970465;28;20582;-85
2022/06/21 11:46:29;;;;;;;9.90;3.13;;;21.90;55.40;;;;;;4971260;28;20055;-83
2022/06/21 11:49:17;;;;;;;9.70;3.03;;;21.90;55.30;;;;;;4969381;28;20051;-83
2022/06/21 11:52:34;;;;;;;8.65;3.00;;;21.90;55.10;;;;;;4969721;28;20047;-85
2022/06/21 11:55:24;;;;;;;7.35;2.58;;;21.90;54.90;;;;;;4970613;28;20504;-85
2022/06/21 11:58:19;;;;;;;11.35;3.17;;;22.00;54.80;;;;;;4971312;28;20054;-84
2022/06/21 12:01:14;;;;;;;10.07;3.25;;;22.10;54.60;;;;;;4970782;28;20109;-85
2022/06/21 12:03:50;;;;;;;8.05;2.92;;;22.10;54.40;;;;;;4970331;28;20106;-85
2022/06/21 12:06:29;;;;;;;9.02;3.40;;;22.10;54.30;;;;;;4969101;28;20113;-84
2022/06/21 12:09:26;;;;;;;8.93;3.03;;;22.10;54.00;;;;;;4950170;28;20051;-84
2022/06/21 12:11:58;;;;;;;7.43;2.60;;;22.20;53.80;;;;;;4964197;28;20058;-83
2022/06/21 12:15:13;;;;;;;7.97;2.63;;;22.30;53.60;;;;;;5000241;28;20095;-84
2022/06/21 12:18:04;;;;;;;6.82;2.60;;;22.30;53.40;;;;;;5027548;28;20506;-84
2022/06/21 12:20:37;;;;;;;9.10;2.72;;;22.30;53.20;;;;;;5027753;28;20470;-83
2022/06/21 12:23:24;;;;;;;9.23;2.45;;;22.40;53.00;;;;;;5028109;28;20111;-86
2022/06/21 12:25:52;;;;;;;5.25;2.10;;;22.40;52.80;;;;;;5028067;28;20076;-85
2022/06/21 12:28:23;;;;;;;8.57;2.65;;;22.50;52.60;;;;;;5027925;28;20053;-85
2022/06/21 12:31:03;;;;;;;10.00;2.60;;;22.50;52.30;;;;;;5028509;28;20060;-84
2022/06/21 12:33:36;;;;;;;9.50;3.08;;;22.60;52.10;;;;;;5030545;28;20046;-84
2022/06/21 12:36:07;;;;;;;5.80;2.20;;;22.70;51.90;;;;;;5034629;28;20050;-83
2022/06/21 12:38:39;;;;;;;9.35;2.83;;;22.70;51.60;;;;;;5034235;28;20041;-84
2022/06/21 12:41:20;;;;;;;8.05;2.42;;;22.80;51.30;;;;;;5034590;28;20045;-84
2022/06/21 12:43:56;;;;;;;7.32;2.30;;;22.80;51.10;;;;;;5034639;28;20049;-84
2022/06/21 12:46:34;;;;;;;8.48;2.58;;;22.90;51.00;;;;;;5017390;28;20050;-84
2022/06/21 12:49:36;;;;;;;7.43;2.70;;;22.90;50.90;;;;;;5035792;28;20132;-84
2022/06/21 12:52:19;;;;;;;8.05;2.30;;;22.90;50.80;;;;;;5035875;28;20049;-85
2022/06/21 12:54:59;;;;;;;6.78;2.50;;;22.90;50.70;;;;;;5037478;28;20046;-84
2022/06/21 12:58:24;;;;;;;10.02;2.78;;;23.00;50.70;;;;;;5033433;28;20058;-84
2022/06/21 13:00:52;;;;;;;;;;;23.00;50.70;;;;;;5035733;28;20045;-83
2022/06/21 13:03:39;;;;;;;6.57;2.83;;;23.00;50.80;;;;;;5017638;28;20007;-84
2022/06/21 13:06:18;;;;;;;6.05;2.42;;;23.00;50.70;;;;;;5050715;28;20053;-86
2022/06/21 13:09:20;;;;;;;7.30;2.70;;;23.00;50.80;;;;;;5034265;28;20497;-84
2022/06/21 13:11:59;;;;;;;9.10;2.78;;;23.00;50.70;;;;;;4994568;28;20046;-84
2022/06/21 13:14:50;;;;;;;8.15;2.63;;;23.10;50.70;;;;;;4993990;28;20124;-83
2022/06/21 13:17:41;;;;;;;6.50;2.45;;;23.10;50.60;;;;;;4994659;28;20042;-83
2022/06/21 13:20:21;;;;;;;8.70;2.85;;;23.10;50.60;;;;;;4994755;28;20046;-84
2022/06/21 13:23:02;;;;;;;6.93;2.63;;;23.20;50.50;;;;;;4995214;28;20105;-84
2022/06/21 13:25:38;;;;;;;5.80;2.30;;;23.20;50.40;;;;;;4995323;28;20050;-84
2022/06/21 13:28:13;;;;;;;7.85;2.20;;;23.30;50.30;;;;;;4992243;28;20050;-84
2022/06/21 13:30:51;;;;;;;5.70;2.25;;;23.30;50.20;;;;;;4995075;28;20518;-85
2022/06/21 13:33:53;;;;;;;7.05;2.10;;;23.40;50.00;;;;;;5011367;28;20066;-85
2022/06/21 13:36:34;;;;;;;5.47;1.90;;;23.40;49.90;;;;;;4995011;28;20529;-85
2022/06/21 13:39:35;;;;;;;10.98;2.60;;;23.40;49.90;;;;;;4994978;28;20050;-85
2022/06/21 13:45:31;;;;;;;9.60;2.63;;;23.40;49.70;;;;;;4992577;28;20050;-83
2022/06/21 13:48:39;;;;;;;5.15;2.20;;;23.40;49.70;;;;;;5003367;28;20115;-84
2022/06/21 13:51:37;;;;;;;6.40;2.47;;;23.40;49.70;;;;;;5032129;28;20537;-84
2022/06/21 13:54:31;;;;;;;6.38;2.35;;;23.50;49.70;;;;;;5032095;28;20045;-84
2022/06/21 13:57:26;;;;;;;6.63;2.40;;;23.50;49.60;;;;;;5030543;28;20061;-85
2022/06/21 13:59:53;;;;;;;9.40;2.47;;;23.50;49.60;;;;;;5030195;28;20112;-83
2022/06/21 14:02:34;;;;;;;6.97;2.10;;;23.50;49.50;;;;;;5030611;28;20509;-85
2022/06/21 14:05:15;;;;;;;7.07;2.28;;;23.40;49.50;;;;;;5030281;28;20107;-84
2022/06/21 14:07:58;;;;;;;8.43;2.10;;;23.40;49.50;;;;;;5015358;28;20549;-86